Погода Вышковна 2 недели

Брянская область, Россия

16 - 28 июля
  • 16июля
    Сегодня
    +20°
    +34°
    Практически безоблачно
    ВремяПогодаТемператураВлажностьДавлениеВетер, м/сВероятность осадков
    00:00Облачно с прояснениями+24°C82 %750 мм2.4 м/с34 %
    03:00Ясно и безоблачно+21°C92 %750 мм1.5 м/с7 %
    06:00Облачно с прояснениями+21°C93 %750 мм1.5 м/с2 %
    09:00Небольшая облачность+27°C70 %751 мм1.6 м/с2 %
    12:00Практически безоблачно+32°C58 %751 мм2.2 м/с10 %
    15:00Практически безоблачно+33°C51 %750 мм2.4 м/с4 %
    18:00Ясно и безоблачно+32°C54 %750 мм2.0 м/с4 %
    21:00Ясно и безоблачно+26°C73 %750 мм1.8 м/с1 %
  • 17июля
    Среда
    +21°
    +36°
    Небольшая облачность
    ВремяПогодаТемператураВлажностьДавлениеВетер, м/сВероятность осадков
    00:00Ясно и безоблачно+23°C82 %750 мм1.9 м/с2 %
    03:00Ясно и безоблачно+22°C86 %750 мм1.8 м/с2 %
    06:00Ясно и безоблачно+22°C81 %750 мм2.7 м/с2 %
    09:00Ясно и безоблачно+28°C60 %751 мм1.8 м/с2 %
    12:00Практически безоблачно+33°C50 %751 мм1.8 м/с2 %
    15:00Небольшая облачность+35°C47 %750 мм3.4 м/с15 %
    18:00Облачно с прояснениями+33°C53 %750 мм2.4 м/с45 %
    21:00Облачно с прояснениями+28°C67 %750 мм1.7 м/с18 %
  • 18июля
    Четверг
    +17°
    +30°
    Облачно с прояснениями
    ВремяПогодаТемператураВлажностьДавлениеВетер, м/сВероятность осадков
    00:00Облачно с прояснениями+25°C79 %750 мм2.4 м/с16 %
    03:00Ясно и безоблачно+23°C89 %750 мм2.5 м/с10 %
    06:00Небольшая облачность+22°C93 %750 мм3.2 м/с4 %
    09:00Пасмурно, сплошная облачность+26°C75 %751 мм3.9 м/с26 %
    12:00Облачно с прояснениями+29°C60 %751 мм4.9 м/с47 %
    15:00Облачно с прояснениями+29°C49 %750 мм4.9 м/с32 %
    18:00Ясно и безоблачно+28°C44 %750 мм5.6 м/с16 %
    21:00Ясно и безоблачно+24°C54 %750 мм3.7 м/с4 %
  • 19июля
    Пятница
    +15°
    +29°
    Облачно с прояснениями
    ВремяПогодаТемператураВлажностьДавлениеВетер, м/сВероятность осадков
    00:00Ясно и безоблачно+21°C70 %751 мм2.8 м/с2 %
    03:00Ясно и безоблачно+19°C77 %751 мм2.9 м/с2 %
    06:00Ясно и безоблачно+17°C79 %751 мм3.0 м/с2 %
    09:00Ясно и безоблачно+23°C60 %751 мм4.0 м/с2 %
    12:00Небольшая облачность+27°C46 %750 мм4.8 м/с6 %
    15:00Облачно с прояснениями+28°C40 %750 мм5.1 м/с6 %
    18:00Практически безоблачно+27°C40 %749 мм5.3 м/с2 %
    21:00Ясно и безоблачно+22°C52 %749 мм3.1 м/с2 %
Мы используем cookies
Соглашаюсь